sensor_id;sensor_type;location;lat;lon;timestamp;pressure;altitude;pressure_sealevel;temperature;humidity
72636;BME280;60679;48.888;15.544;2023-07-31T00:02:23;96098.88;;;13.96;64.76
72636;BME280;60679;48.888;15.544;2023-07-31T00:04:48;96101.81;;;13.95;64.72
72636;BME280;60679;48.888;15.544;2023-07-31T00:07:14;96101.81;;;13.95;64.97
72636;BME280;60679;48.888;15.544;2023-07-31T00:09:40;96095.81;;;13.93;64.75
72636;BME280;60679;48.888;15.544;2023-07-31T00:12:05;96096.88;;;13.92;64.99
72636;BME280;60679;48.888;15.544;2023-07-31T00:14:31;96104.47;;;13.89;64.96
72636;BME280;60679;48.888;15.544;2023-07-31T00:16:56;96101.19;;;13.87;64.83
72636;BME280;60679;48.888;15.544;2023-07-31T00:19:22;96101.00;;;13.77;65.09
72636;BME280;60679;48.888;15.544;2023-07-31T00:21:47;96099.88;;;13.73;65.13
72636;BME280;60679;48.888;15.544;2023-07-31T00:24:13;96093.28;;;13.69;65.19
72636;BME280;60679;48.888;15.544;2023-07-31T00:26:38;96100.84;;;13.67;65.57
72636;BME280;60679;48.888;15.544;2023-07-31T00:29:04;96096.41;;;13.61;65.44
72636;BME280;60679;48.888;15.544;2023-07-31T00:31:30;96104.56;;;13.61;65.48
72636;BME280;60679;48.888;15.544;2023-07-31T00:33:55;96099.13;;;13.61;65.54
72636;BME280;60679;48.888;15.544;2023-07-31T00:36:21;96097.25;;;13.62;65.49
72636;BME280;60679;48.888;15.544;2023-07-31T00:38:46;96104.31;;;13.63;65.66
72636;BME280;60679;48.888;15.544;2023-07-31T00:41:11;96105.38;;;13.62;65.68
72636;BME280;60679;48.888;15.544;2023-07-31T00:43:37;96103.72;;;13.61;65.80
72636;BME280;60679;48.888;15.544;2023-07-31T00:46:02;96096.41;;;13.61;65.73
72636;BME280;60679;48.888;15.544;2023-07-31T00:48:28;96097.50;;;13.60;65.72
72636;BME280;60679;48.888;15.544;2023-07-31T00:50:54;96098.06;;;13.62;65.77
72636;BME280;60679;48.888;15.544;2023-07-31T00:53:19;96098.91;;;13.63;65.75
72636;BME280;60679;48.888;15.544;2023-07-31T00:55:48;96098.91;;;13.63;65.65
72636;BME280;60679;48.888;15.544;2023-07-31T00:58:14;96100.44;;;13.59;66.07
72636;BME280;60679;48.888;15.544;2023-07-31T01:00:39;96100.09;;;13.55;66.01
72636;BME280;60679;48.888;15.544;2023-07-31T01:03:05;96097.16;;;13.57;65.99
72636;BME280;60679;48.888;15.544;2023-07-31T01:10:55;96102.34;;;13.58;66.20
72636;BME280;60679;48.888;15.544;2023-07-31T01:13:21;96101.75;;;13.56;66.30
72636;BME280;60679;48.888;15.544;2023-07-31T01:15:47;96098.72;;;13.53;66.25
72636;BME280;60679;48.888;15.544;2023-07-31T01:18:12;96096.34;;;13.56;66.45
72636;BME280;60679;48.888;15.544;2023-07-31T01:20:39;96101.75;;;13.56;66.14
72636;BME280;60679;48.888;15.544;2023-07-31T01:23:44;96103.16;;;13.59;66.47
72636;BME280;60679;48.888;15.544;2023-07-31T01:26:34;96096.69;;;13.60;66.48
72636;BME280;60679;48.888;15.544;2023-07-31T01:29:23;96099.13;;;13.61;66.48
72636;BME280;60679;48.888;15.544;2023-07-31T01:31:53;96094.53;;;13.62;66.51
72636;BME280;60679;48.888;15.544;2023-07-31T01:34:21;96096.19;;;13.63;66.44
72636;BME280;60679;48.888;15.544;2023-07-31T01:36:47;96099.97;;;13.62;66.58
72636;BME280;60679;48.888;15.544;2023-07-31T01:39:13;96096.34;;;13.56;66.77
72636;BME280;60679;48.888;15.544;2023-07-31T01:41:40;96094.38;;;13.52;66.59
72636;BME280;60679;48.888;15.544;2023-07-31T01:44:06;96096.50;;;13.50;66.85
72636;BME280;60679;48.888;15.544;2023-07-31T01:46:32;96091.91;;;13.50;66.80
72636;BME280;60679;48.888;15.544;2023-07-31T01:48:57;96089.19;;;13.50;66.97
72636;BME280;60679;48.888;15.544;2023-07-31T01:51:22;96086.97;;;13.47;66.83
72636;BME280;60679;48.888;15.544;2023-07-31T01:53:48;96088.03;;;13.46;66.89
72636;BME280;60679;48.888;15.544;2023-07-31T01:56:13;96092.03;;;13.44;67.03
72636;BME280;60679;48.888;15.544;2023-07-31T01:58:40;96079.78;;;13.41;66.92
72636;BME280;60679;48.888;15.544;2023-07-31T02:01:06;96081.94;;;13.39;67.00
72636;BME280;60679;48.888;15.544;2023-07-31T02:03:31;96083.00;;;13.38;67.14
72636;BME280;60679;48.888;15.544;2023-07-31T02:05:57;96082.44;;;13.36;67.11
72636;BME280;60679;48.888;15.544;2023-07-31T02:08:22;96083.75;;;13.34;67.23
72636;BME280;60679;48.888;15.544;2023-07-31T02:10:48;96078.81;;;13.30;67.32
72636;BME280;60679;48.888;15.544;2023-07-31T02:13:14;96081.53;;;13.30;67.27
72636;BME280;60679;48.888;15.544;2023-07-31T02:15:39;96073.66;;;13.29;67.25
72636;BME280;60679;48.888;15.544;2023-07-31T02:18:05;96073.66;;;13.29;67.40
72636;BME280;60679;48.888;15.544;2023-07-31T02:20:33;96080.13;;;13.28;67.44
72636;BME280;60679;48.888;15.544;2023-07-31T02:22:59;96080.69;;;13.30;67.25
72636;BME280;60679;48.888;15.544;2023-07-31T02:25:24;96082.09;;;13.32;67.42
72636;BME280;60679;48.888;15.544;2023-07-31T02:27:50;96079.97;;;13.35;67.20
72636;BME280;60679;48.888;15.544;2023-07-31T02:30:15;96080.53;;;13.37;67.46
72636;BME280;60679;48.888;15.544;2023-07-31T02:32:41;96080.53;;;13.37;67.46
72636;BME280;60679;48.888;15.544;2023-07-31T02:35:07;96076.53;;;13.39;67.65
72636;BME280;60679;48.888;15.544;2023-07-31T02:37:34;96080.41;;;13.43;67.46
72636;BME280;60679;48.888;15.544;2023-07-31T02:39:59;96076.03;;;13.42;67.56
72636;BME280;60679;48.888;15.544;2023-07-31T02:42:27;96075.19;;;13.42;67.54
72636;BME280;60679;48.888;15.544;2023-07-31T02:44:56;96073.31;;;13.42;67.43
72636;BME280;60679;48.888;15.544;2023-07-31T02:47:25;96073.81;;;13.39;67.52
72636;BME280;60679;48.888;15.544;2023-07-31T02:49:50;96078.66;;;13.37;67.74
72636;BME280;60679;48.888;15.544;2023-07-31T02:52:16;96071.84;;;13.35;67.57
72636;BME280;60679;48.888;15.544;2023-07-31T02:54:41;96071.09;;;13.39;67.68
72636;BME280;60679;48.888;15.544;2023-07-31T02:57:07;96065.41;;;13.41;67.76
72636;BME280;60679;48.888;15.544;2023-07-31T02:59:33;96072.56;;;13.47;67.71
72636;BME280;60679;48.888;15.544;2023-07-31T03:01:58;96072.06;;;13.50;67.59
72636;BME280;60679;48.888;15.544;2023-07-31T03:04:23;96079.16;;;13.51;67.61
72636;BME280;60679;48.888;15.544;2023-07-31T03:06:49;96077.84;;;13.53;67.66
72636;BME280;60679;48.888;15.544;2023-07-31T03:09:18;96075.47;;;13.57;67.63
72636;BME280;60679;48.888;15.544;2023-07-31T03:11:43;96070.59;;;13.59;67.67
72636;BME280;60679;48.888;15.544;2023-07-31T03:14:09;96067.88;;;13.59;67.72
72636;BME280;60679;48.888;15.544;2023-07-31T03:16:34;96068.38;;;13.56;67.56
72636;BME280;60679;48.888;15.544;2023-07-31T03:19:00;96064.53;;;13.52;67.75
72636;BME280;60679;48.888;15.544;2023-07-31T03:21:28;96066.16;;;13.53;67.71
72636;BME280;60679;48.888;15.544;2023-07-31T03:23:53;96062.88;;;13.51;67.85
72636;BME280;60679;48.888;15.544;2023-07-31T03:26:19;96057.94;;;13.48;67.58
72636;BME280;60679;48.888;15.544;2023-07-31T03:28:44;96062.47;;;13.42;67.98
72636;BME280;60679;48.888;15.544;2023-07-31T03:31:10;96065.75;;;13.44;68.14
72636;BME280;60679;48.888;15.544;2023-07-31T03:33:36;96071.16;;;13.44;67.64
72636;BME280;60679;48.888;15.544;2023-07-31T03:36:02;96069.28;;;13.45;67.83
72636;BME280;60679;48.888;15.544;2023-07-31T03:38:27;96076.66;;;13.49;67.99
72636;BME280;60679;48.888;15.544;2023-07-31T03:40:53;96069.13;;;13.51;67.91
72636;BME280;60679;48.888;15.544;2023-07-31T03:43:21;96073.25;;;13.54;67.81
72636;BME280;60679;48.888;15.544;2023-07-31T03:45:47;96066.22;;;13.58;68.06
72636;BME280;60679;48.888;15.544;2023-07-31T03:48:15;96077.41;;;13.61;67.96
72636;BME280;60679;48.888;15.544;2023-07-31T03:50:41;96076.09;;;13.64;67.90
72636;BME280;60679;48.888;15.544;2023-07-31T03:53:07;96079.66;;;13.64;67.94
72636;BME280;60679;48.888;15.544;2023-07-31T03:55:32;96073.16;;;13.65;68.11
72636;BME280;60679;48.888;15.544;2023-07-31T03:57:58;96081.38;;;13.70;67.88
72636;BME280;60679;48.888;15.544;2023-07-31T04:00:26;96085.47;;;13.73;67.71
72636;BME280;60679;48.888;15.544;2023-07-31T04:02:52;96083.09;;;13.76;67.76
72636;BME280;60679;48.888;15.544;2023-07-31T04:05:18;96093.19;;;13.81;67.79
72636;BME280;60679;48.888;15.544;2023-07-31T04:07:43;96093.19;;;13.81;67.86
72636;BME280;60679;48.888;15.544;2023-07-31T04:10:09;96094.84;;;13.82;67.72
72636;BME280;60679;48.888;15.544;2023-07-31T04:12:35;96095.41;;;13.84;67.98
72636;BME280;60679;48.888;15.544;2023-07-31T04:15:04;96094.94;;;13.87;67.93
72636;BME280;60679;48.888;15.544;2023-07-31T04:17:29;96101.69;;;13.84;67.68
72636;BME280;60679;48.888;15.544;2023-07-31T04:19:55;96110.16;;;13.88;67.65
72636;BME280;60679;48.888;15.544;2023-07-31T04:22:23;96103.41;;;13.91;67.67
72636;BME280;60679;48.888;15.544;2023-07-31T04:24:49;96103.22;;;13.97;67.48
72636;BME280;60679;48.888;15.544;2023-07-31T04:27:14;96110.97;;;14.05;67.60
72636;BME280;60679;48.888;15.544;2023-07-31T04:29:40;96112.16;;;14.14;67.33
72636;BME280;60679;48.888;15.544;2023-07-31T04:32:08;96116.59;;;14.20;67.38
72636;BME280;60679;48.888;15.544;2023-07-31T04:34:36;96115.84;;;14.25;67.33
72636;BME280;60679;48.888;15.544;2023-07-31T04:37:02;96117.34;;;14.32;67.18
72636;BME280;60679;48.888;15.544;2023-07-31T04:39:28;96118.50;;;14.36;66.84
72636;BME280;60679;48.888;15.544;2023-07-31T04:41:53;96114.47;;;14.39;67.04
72636;BME280;60679;48.888;15.544;2023-07-31T04:44:19;96107.09;;;14.39;66.80
72636;BME280;60679;48.888;15.544;2023-07-31T04:46:44;96112.63;;;14.44;66.92
72636;BME280;60679;48.888;15.544;2023-07-31T04:49:11;96119.19;;;14.49;66.86
72636;BME280;60679;48.888;15.544;2023-07-31T04:51:36;96106.19;;;14.51;66.77
72636;BME280;60679;48.888;15.544;2023-07-31T04:54:02;96108.47;;;14.59;66.65
72636;BME280;60679;48.888;15.544;2023-07-31T04:56:27;96110.41;;;14.63;66.56
72636;BME280;60679;48.888;15.544;2023-07-31T04:58:52;96112.69;;;14.71;66.75
72636;BME280;60679;48.888;15.544;2023-07-31T05:01:18;96107.63;;;14.80;66.25
72636;BME280;60679;48.888;15.544;2023-07-31T05:03:44;96112.56;;;14.83;66.10
72636;BME280;60679;48.888;15.544;2023-07-31T05:06:09;96107.69;;;14.85;65.90
72636;BME280;60679;48.888;15.544;2023-07-31T05:08:35;96110.22;;;14.91;66.17
72636;BME280;60679;48.888;15.544;2023-07-31T05:11:00;96108.41;;;15.02;65.93
72636;BME280;60679;48.888;15.544;2023-07-31T05:13:26;96103.97;;;15.18;65.50
72636;BME280;60679;48.888;15.544;2023-07-31T05:15:51;96104.94;;;15.33;65.16
72636;BME280;60679;48.888;15.544;2023-07-31T05:18:17;96111.88;;;15.46;65.07
72636;BME280;60679;48.888;15.544;2023-07-31T05:20:42;96111.75;;;15.57;64.88
72636;BME280;60679;48.888;15.544;2023-07-31T05:23:13;96111.81;;;15.68;64.90
72636;BME280;60679;48.888;15.544;2023-07-31T05:25:39;96119.78;;;15.74;64.52
72636;BME280;60679;48.888;15.544;2023-07-31T05:28:05;96109.47;;;15.81;64.44
72636;BME280;60679;48.888;15.544;2023-07-31T05:30:30;96111.97;;;15.83;64.65
72636;BME280;60679;48.888;15.544;2023-07-31T05:32:56;96111.72;;;15.89;64.29
72636;BME280;60679;48.888;15.544;2023-07-31T05:35:22;96112.31;;;15.91;64.12
72636;BME280;60679;48.888;15.544;2023-07-31T05:37:47;96118.13;;;16.05;64.25
72636;BME280;60679;48.888;15.544;2023-07-31T05:40:13;96122.56;;;16.16;63.65
72636;BME280;60679;48.888;15.544;2023-07-31T05:42:39;96119.03;;;16.21;63.58
72636;BME280;60679;48.888;15.544;2023-07-31T05:45:07;96114.19;;;16.28;63.44
72636;BME280;60679;48.888;15.544;2023-07-31T05:47:33;96118.34;;;16.40;63.64
72636;BME280;60679;48.888;15.544;2023-07-31T05:49:58;96126.94;;;16.59;63.33
72636;BME280;60679;48.888;15.544;2023-07-31T05:52:23;96121.03;;;16.82;62.83
72636;BME280;60679;48.888;15.544;2023-07-31T05:54:49;96127.13;;;17.04;62.42
72636;BME280;60679;48.888;15.544;2023-07-31T05:57:15;96121.19;;;17.22;62.05
72636;BME280;60679;48.888;15.544;2023-07-31T05:59:41;96128.88;;;17.41;61.66
72636;BME280;60679;48.888;15.544;2023-07-31T06:02:06;96122.41;;;17.72;61.68
72636;BME280;60679;48.888;15.544;2023-07-31T06:04:32;96127.59;;;18.09;61.32
72636;BME280;60679;48.888;15.544;2023-07-31T06:06:57;96122.34;;;18.32;60.81
72636;BME280;60679;48.888;15.544;2023-07-31T06:09:23;96126.44;;;18.35;60.65
72636;BME280;60679;48.888;15.544;2023-07-31T06:11:48;96141.75;;;18.46;60.56
72636;BME280;60679;48.888;15.544;2023-07-31T06:14:14;96128.38;;;18.50;60.33
72636;BME280;60679;48.888;15.544;2023-07-31T06:16:39;96122.88;;;18.44;60.92
72636;BME280;60679;48.888;15.544;2023-07-31T06:19:05;96122.94;;;18.34;61.05
72636;BME280;60679;48.888;15.544;2023-07-31T06:21:32;96130.00;;;18.35;60.96
72636;BME280;60679;48.888;15.544;2023-07-31T06:23:58;96131.69;;;18.31;61.03
72636;BME280;60679;48.888;15.544;2023-07-31T06:26:26;96127.00;;;18.27;60.76
72636;BME280;60679;48.888;15.544;2023-07-31T06:28:51;96122.41;;;18.17;60.85
72636;BME280;60679;48.888;15.544;2023-07-31T06:31:17;96117.19;;;18.21;60.78
72636;BME280;60679;48.888;15.544;2023-07-31T06:33:51;96119.06;;;18.40;60.37
72636;BME280;60679;48.888;15.544;2023-07-31T06:36:20;96117.13;;;18.46;60.13
72636;BME280;60679;48.888;15.544;2023-07-31T06:38:49;96116.34;;;18.30;60.74
72636;BME280;60679;48.888;15.544;2023-07-31T06:41:15;96121.84;;;18.20;60.94
72636;BME280;60679;48.888;15.544;2023-07-31T06:43:40;96122.38;;;18.22;60.77
72636;BME280;60679;48.888;15.544;2023-07-31T06:46:06;96124.28;;;18.42;60.36
72636;BME280;60679;48.888;15.544;2023-07-31T06:48:33;96127.53;;;18.64;60.13
72636;BME280;60679;48.888;15.544;2023-07-31T06:50:58;96126.44;;;18.65;59.94
72636;BME280;60679;48.888;15.544;2023-07-31T06:53:24;96126.59;;;18.99;59.42
72636;BME280;60679;48.888;15.544;2023-07-31T06:55:49;96123.19;;;19.27;59.02
72636;BME280;60679;48.888;15.544;2023-07-31T06:58:17;96119.28;;;19.43;58.44
72636;BME280;60679;48.888;15.544;2023-07-31T07:00:42;96123.09;;;19.42;58.56
72636;BME280;60679;48.888;15.544;2023-07-31T07:03:08;96115.28;;;19.16;59.22
72636;BME280;60679;48.888;15.544;2023-07-31T07:05:33;96120.84;;;18.95;59.38
72636;BME280;60679;48.888;15.544;2023-07-31T07:07:59;96113.91;;;19.18;58.61
72636;BME280;60679;48.888;15.544;2023-07-31T07:10:25;96115.94;;;19.51;58.61
72636;BME280;60679;48.888;15.544;2023-07-31T07:12:50;96110.22;;;19.87;57.94
72636;BME280;60679;48.888;15.544;2023-07-31T07:15:16;96116.44;;;19.97;57.44
72636;BME280;60679;48.888;15.544;2023-07-31T07:17:41;96108.31;;;20.16;56.70
72636;BME280;60679;48.888;15.544;2023-07-31T07:20:07;96107.50;;;20.73;56.28
72636;BME280;60679;48.888;15.544;2023-07-31T07:22:33;96102.47;;;21.04;55.68
72636;BME280;60679;48.888;15.544;2023-07-31T07:24:58;96098.06;;;21.26;55.04
72636;BME280;60679;48.888;15.544;2023-07-31T07:27:24;96103.44;;;21.74;54.55
72636;BME280;60679;48.888;15.544;2023-07-31T07:29:52;96106.50;;;21.91;54.13
72636;BME280;60679;48.888;15.544;2023-07-31T07:32:18;96106.66;;;22.32;53.47
72636;BME280;60679;48.888;15.544;2023-07-31T07:34:44;96098.81;;;22.39;53.67
72636;BME280;60679;48.888;15.544;2023-07-31T07:37:09;96096.47;;;22.32;53.56
72636;BME280;60679;48.888;15.544;2023-07-31T07:39:35;96094.63;;;22.41;53.42
72636;BME280;60679;48.888;15.544;2023-07-31T07:42:00;96095.28;;;22.52;53.02
72636;BME280;60679;48.888;15.544;2023-07-31T07:44:26;96091.00;;;22.60;52.82
72636;BME280;60679;48.888;15.544;2023-07-31T07:46:52;96086.47;;;22.82;52.21
72636;BME280;60679;48.888;15.544;2023-07-31T07:49:17;96086.16;;;23.11;51.61
72636;BME280;60679;48.888;15.544;2023-07-31T07:51:43;96085.72;;;23.18;51.56
72636;BME280;60679;48.888;15.544;2023-07-31T07:54:08;96089.78;;;23.20;51.38
72636;BME280;60679;48.888;15.544;2023-07-31T07:56:34;96091.31;;;23.26;51.22
72636;BME280;60679;48.888;15.544;2023-07-31T07:59:01;96082.16;;;23.17;51.20
72636;BME280;60679;48.888;15.544;2023-07-31T08:01:27;96083.59;;;23.01;51.46
72636;BME280;60679;48.888;15.544;2023-07-31T08:03:52;96088.59;;;22.85;51.14
72636;BME280;60679;48.888;15.544;2023-07-31T08:06:18;96085.53;;;22.87;51.66
72636;BME280;60679;48.888;15.544;2023-07-31T08:08:43;96090.31;;;22.81;51.67
72636;BME280;60679;48.888;15.544;2023-07-31T08:11:09;96088.03;;;22.56;51.64
72636;BME280;60679;48.888;15.544;2023-07-31T08:13:34;96087.03;;;22.52;51.79
72636;BME280;60679;48.888;15.544;2023-07-31T08:16:02;96095.47;;;22.56;51.60
72636;BME280;60679;48.888;15.544;2023-07-31T08:18:28;96094.72;;;22.82;51.60
72636;BME280;60679;48.888;15.544;2023-07-31T08:20:53;96099.28;;;22.87;51.33
72636;BME280;60679;48.888;15.544;2023-07-31T08:23:19;96092.53;;;22.52;51.40
72636;BME280;60679;48.888;15.544;2023-07-31T08:25:45;96097.03;;;21.97;52.16
72636;BME280;60679;48.888;15.544;2023-07-31T08:28:10;96085.97;;;22.02;51.95
72636;BME280;60679;48.888;15.544;2023-07-31T08:30:35;96093.09;;;22.03;51.87
72636;BME280;60679;48.888;15.544;2023-07-31T08:33:01;96095.81;;;21.90;51.72
72636;BME280;60679;48.888;15.544;2023-07-31T08:35:28;96100.63;;;21.98;51.70
72636;BME280;60679;48.888;15.544;2023-07-31T08:37:54;96093.38;;;22.34;51.17
72636;BME280;60679;48.888;15.544;2023-07-31T08:40:19;96082.59;;;22.37;50.83
72636;BME280;60679;48.888;15.544;2023-07-31T08:42:48;96107.06;;;22.71;50.69
72636;BME280;60679;48.888;15.544;2023-07-31T08:45:19;96095.13;;;22.76;50.71
72636;BME280;60679;48.888;15.544;2023-07-31T08:47:46;96091.63;;;23.25;50.14
72636;BME280;60679;48.888;15.544;2023-07-31T08:50:13;96085.63;;;23.72;49.52
72636;BME280;60679;48.888;15.544;2023-07-31T08:52:39;96074.22;;;24.23;48.64
72636;BME280;60679;48.888;15.544;2023-07-31T08:55:05;96069.75;;;25.71;46.52
72636;BME280;60679;48.888;15.544;2023-07-31T08:57:33;96078.09;;;27.15;43.80
72636;BME280;60679;48.888;15.544;2023-07-31T08:59:59;96067.34;;;27.72;42.30
72636;BME280;60679;48.888;15.544;2023-07-31T09:02:31;96054.78;;;29.06;41.11
72636;BME280;60679;48.888;15.544;2023-07-31T09:04:59;96053.06;;;30.29;39.48
72636;BME280;60679;48.888;15.544;2023-07-31T09:07:25;96065.69;;;30.67;39.06
72636;BME280;60679;48.888;15.544;2023-07-31T09:09:50;96058.75;;;31.35;37.69
72636;BME280;60679;48.888;15.544;2023-07-31T09:12:16;96064.84;;;31.91;37.23
72636;BME280;60679;48.888;15.544;2023-07-31T09:14:43;96059.75;;;32.51;36.07
72636;BME280;60679;48.888;15.544;2023-07-31T09:17:10;96062.66;;;32.96;35.79
72636;BME280;60679;48.888;15.544;2023-07-31T09:19:36;96064.16;;;33.36;35.13
72636;BME280;60679;48.888;15.544;2023-07-31T09:22:08;96049.69;;;33.83;34.02
72636;BME280;60679;48.888;15.544;2023-07-31T09:24:34;96063.16;;;33.25;34.63
72636;BME280;60679;48.888;15.544;2023-07-31T09:27:01;96061.72;;;33.34;34.34
72636;BME280;60679;48.888;15.544;2023-07-31T09:29:28;96054.78;;;33.51;34.31
72636;BME280;60679;48.888;15.544;2023-07-31T09:31:54;96055.31;;;33.11;34.38
72636;BME280;60679;48.888;15.544;2023-07-31T09:34:28;96050.84;;;33.29;34.23
72636;BME280;60679;48.888;15.544;2023-07-31T09:36:58;96048.06;;;33.55;33.86
72636;BME280;60679;48.888;15.544;2023-07-31T09:39:26;96045.41;;;34.52;32.64
72636;BME280;60679;48.888;15.544;2023-07-31T09:41:56;96050.25;;;36.41;30.85
72636;BME280;60679;48.888;15.544;2023-07-31T09:44:21;96038.84;;;35.07;32.41
72636;BME280;60679;48.888;15.544;2023-07-31T09:46:50;96046.13;;;32.69;35.09
72636;BME280;60679;48.888;15.544;2023-07-31T09:49:18;96042.50;;;35.15;32.30
72636;BME280;60679;48.888;15.544;2023-07-31T09:51:43;96036.53;;;33.87;34.26
72636;BME280;60679;48.888;15.544;2023-07-31T09:54:12;96034.22;;;36.59;30.42
72636;BME280;60679;48.888;15.544;2023-07-31T09:59:11;96021.44;;;39.55;27.42
72636;BME280;60679;48.888;15.544;2023-07-31T10:01:38;96016.31;;;38.81;28.83
72636;BME280;60679;48.888;15.544;2023-07-31T10:04:04;96028.09;;;39.35;28.31
72636;BME280;60679;48.888;15.544;2023-07-31T10:06:30;96020.06;;;38.53;28.83
72636;BME280;60679;48.888;15.544;2023-07-31T10:08:58;96021.78;;;38.30;28.46
72636;BME280;60679;48.888;15.544;2023-07-31T10:11:25;96023.66;;;39.82;27.14
72636;BME280;60679;48.888;15.544;2023-07-31T10:13:53;96017.38;;;40.38;26.68
72636;BME280;60679;48.888;15.544;2023-07-31T10:16:19;96014.44;;;39.22;26.72
72636;BME280;60679;48.888;15.544;2023-07-31T10:18:45;96017.16;;;38.67;26.58
72636;BME280;60679;48.888;15.544;2023-07-31T10:21:11;96002.53;;;37.96;27.07
72636;BME280;60679;48.888;15.544;2023-07-31T10:23:37;96014.22;;;37.91;26.92
72636;BME280;60679;48.888;15.544;2023-07-31T10:26:05;96009.69;;;39.09;26.72
72636;BME280;60679;48.888;15.544;2023-07-31T10:28:32;96016.44;;;40.14;25.32
72636;BME280;60679;48.888;15.544;2023-07-31T10:30:59;96004.59;;;40.57;25.75
72636;BME280;60679;48.888;15.544;2023-07-31T10:33:27;95995.50;;;42.97;23.59
72636;BME280;60679;48.888;15.544;2023-07-31T10:36:12;95995.06;;;43.15;23.54
72636;BME280;60679;48.888;15.544;2023-07-31T10:38:38;95995.63;;;42.90;24.14
72636;BME280;60679;48.888;15.544;2023-07-31T10:41:10;95998.94;;;40.23;25.18
72636;BME280;60679;48.888;15.544;2023-07-31T10:43:37;95992.53;;;41.36;24.49
72636;BME280;60679;48.888;15.544;2023-07-31T10:46:11;95999.13;;;42.23;24.22
72636;BME280;60679;48.888;15.544;2023-07-31T10:48:38;95988.63;;;42.39;23.79
72636;BME280;60679;48.888;15.544;2023-07-31T10:51:11;95988.31;;;42.73;23.03
72636;BME280;60679;48.888;15.544;2023-07-31T10:53:37;95986.16;;;42.97;22.96
72636;BME280;60679;48.888;15.544;2023-07-31T10:56:08;95977.50;;;43.68;22.63
72636;BME280;60679;48.888;15.544;2023-07-31T10:58:34;95980.69;;;44.44;22.14
72636;BME280;60679;48.888;15.544;2023-07-31T11:01:01;95975.63;;;44.07;22.15
72636;BME280;60679;48.888;15.544;2023-07-31T11:03:47;95973.44;;;43.98;21.83
72636;BME280;60679;48.888;15.544;2023-07-31T11:06:15;95962.13;;;42.82;22.59
72636;BME280;60679;48.888;15.544;2023-07-31T11:08:49;95956.47;;;43.30;21.84
72636;BME280;60679;48.888;15.544;2023-07-31T11:11:19;95951.09;;;44.13;21.17
72636;BME280;60679;48.888;15.544;2023-07-31T11:13:49;95947.31;;;44.99;20.52
72636;BME280;60679;48.888;15.544;2023-07-31T11:16:17;95939.25;;;45.69;20.12
72636;BME280;60679;48.888;15.544;2023-07-31T11:18:46;95936.16;;;43.48;21.71
72636;BME280;60679;48.888;15.544;2023-07-31T11:21:25;95925.47;;;45.17;20.61
72636;BME280;60679;48.888;15.544;2023-07-31T11:23:52;95935.16;;;45.45;20.92
72636;BME280;60679;48.888;15.544;2023-07-31T11:26:19;95929.50;;;46.14;20.10
72636;BME280;60679;48.888;15.544;2023-07-31T11:28:48;95925.72;;;45.36;20.11
72636;BME280;60679;48.888;15.544;2023-07-31T11:31:14;95916.25;;;45.01;20.15
72636;BME280;60679;48.888;15.544;2023-07-31T11:33:40;95907.69;;;46.51;19.40
72636;BME280;60679;48.888;15.544;2023-07-31T11:36:05;95900.69;;;48.17;17.91
72636;BME280;60679;48.888;15.544;2023-07-31T11:38:33;95895.56;;;47.57;17.92
72636;BME280;60679;48.888;15.544;2023-07-31T11:41:00;95891.00;;;48.23;18.12
72636;BME280;60679;48.888;15.544;2023-07-31T11:43:27;95890.03;;;47.54;18.51
72636;BME280;60679;48.888;15.544;2023-07-31T11:45:59;95877.31;;;48.00;18.40
72636;BME280;60679;48.888;15.544;2023-07-31T11:48:34;95872.97;;;47.01;19.64
72636;BME280;60679;48.888;15.544;2023-07-31T11:51:05;95871.31;;;40.94;23.93
72636;BME280;60679;48.888;15.544;2023-07-31T11:53:43;95872.81;;;41.68;22.54
72636;BME280;60679;48.888;15.544;2023-07-31T11:56:13;95864.81;;;46.81;18.32
72636;BME280;60679;48.888;15.544;2023-07-31T11:58:38;95866.94;;;48.30;17.40
72636;BME280;60679;48.888;15.544;2023-07-31T12:01:06;95869.47;;;50.15;16.80
72636;BME280;60679;48.888;15.544;2023-07-31T12:03:32;95866.31;;;50.43;16.48
72636;BME280;60679;48.888;15.544;2023-07-31T12:05:59;95853.25;;;46.94;18.80
72636;BME280;60679;48.888;15.544;2023-07-31T12:08:25;95843.59;;;44.93;19.65
72636;BME280;60679;48.888;15.544;2023-07-31T12:10:52;95849.63;;;47.12;18.16
72636;BME280;60679;48.888;15.544;2023-07-31T12:13:25;95844.22;;;46.34;18.85
72636;BME280;60679;48.888;15.544;2023-07-31T12:15:58;95846.66;;;48.42;16.85
72636;BME280;60679;48.888;15.544;2023-07-31T12:18:26;95833.53;;;46.56;18.38
72636;BME280;60679;48.888;15.544;2023-07-31T12:20:59;95843.81;;;44.73;19.61
72636;BME280;60679;48.888;15.544;2023-07-31T12:23:27;95836.00;;;47.16;17.50
72636;BME280;60679;48.888;15.544;2023-07-31T12:26:17;95839.41;;;43.32;20.15
72636;BME280;60679;48.888;15.544;2023-07-31T12:28:49;95833.00;;;40.32;22.01
72636;BME280;60679;48.888;15.544;2023-07-31T12:31:20;95818.41;;;44.53;18.42
72636;BME280;60679;48.888;15.544;2023-07-31T12:33:46;95821.44;;;47.50;16.83
72636;BME280;60679;48.888;15.544;2023-07-31T12:36:15;95818.97;;;43.37;20.23
72636;BME280;60679;48.888;15.544;2023-07-31T12:38:41;95815.38;;;47.48;17.04
72636;BME280;60679;48.888;15.544;2023-07-31T12:41:07;95811.53;;;47.24;16.97
72636;BME280;60679;48.888;15.544;2023-07-31T12:43:37;95809.22;;;44.08;19.27
72636;BME280;60679;48.888;15.544;2023-07-31T12:46:03;95802.00;;;41.81;20.93
72636;BME280;60679;48.888;15.544;2023-07-31T12:48:28;95800.66;;;49.35;15.33
72636;BME280;60679;48.888;15.544;2023-07-31T12:50:54;95806.34;;;52.52;14.49
72636;BME280;60679;48.888;15.544;2023-07-31T12:53:22;95797.41;;;47.66;17.94
72636;BME280;60679;48.888;15.544;2023-07-31T12:55:48;95789.97;;;42.65;20.49
72636;BME280;60679;48.888;15.544;2023-07-31T12:58:13;95783.22;;;42.59;20.09